createdAt,value
2023-04-22T00:00:02.229Z,12.00
2023-04-22T00:03:09.571Z,9.25
2023-04-22T00:06:13.339Z,10.25
2023-04-22T00:09:16.881Z,10.50
2023-04-22T00:12:20.415Z,10.25
2023-04-22T00:15:26.830Z,10.00
2023-04-22T00:18:30.409Z,10.50
2023-04-22T00:21:33.788Z,12.00
2023-04-22T00:24:37.331Z,9.75
2023-04-22T00:27:40.771Z,9.75
2023-04-22T00:30:45.679Z,9.75
2023-04-22T00:33:49.368Z,3.00
2023-04-22T00:36:52.901Z,9.75
2023-04-22T00:39:58.041Z,9.50
2023-04-22T00:43:01.605Z,11.50
2023-04-22T00:46:06.970Z,10.00
2023-04-22T00:49:10.759Z,7.00
2023-04-22T00:52:14.248Z,9.75
2023-04-22T00:55:17.891Z,9.00
2023-04-22T00:58:24.059Z,7.00
2023-04-22T01:01:29.573Z,9.00
2023-04-22T01:04:33.260Z,9.00
2023-04-22T01:07:36.937Z,10.00
2023-04-22T01:10:40.932Z,9.75
2023-04-22T01:13:44.506Z,7.00
2023-04-22T01:16:49.812Z,9.00
2023-04-22T01:19:53.482Z,9.50
2023-04-22T01:22:58.044Z,7.00
2023-04-22T01:26:03.385Z,10.00
2023-04-22T01:29:07.624Z,7.00
2023-04-22T01:32:11.306Z,6.25
2023-04-22T01:35:15.031Z,10.00
2023-04-22T01:38:18.642Z,9.50
2023-04-22T01:41:23.679Z,9.25
2023-04-22T01:44:27.986Z,9.50
2023-04-22T01:47:32.544Z,7.00
2023-04-22T01:50:36.470Z,9.00
2023-04-22T01:53:40.097Z,10.00
2023-04-22T01:56:51.687Z,6.75
2023-04-22T01:59:55.334Z,9.00
2023-04-22T02:02:59.259Z,10.00
2023-04-22T02:06:02.698Z,9.75
2023-04-22T02:09:06.432Z,7.00
2023-04-22T02:12:11.409Z,9.00
2023-04-22T02:15:17.035Z,3.00
2023-04-22T02:18:21.090Z,9.25
2023-04-22T02:21:24.520Z,9.25
2023-04-22T02:24:28.071Z,6.75
2023-04-22T02:27:33.191Z,6.50
2023-04-22T02:30:37.080Z,9.00
2023-04-22T02:33:40.748Z,9.25
2023-04-22T02:36:46.034Z,6.25
2023-04-22T02:39:49.577Z,10.00
2023-04-22T02:42:55.799Z,7.50
2023-04-22T02:45:59.308Z,9.00
2023-04-22T02:49:03.148Z,7.00
2023-04-22T02:52:06.826Z,7.50
2023-04-22T02:55:11.236Z,11.75
2023-04-22T02:58:16.107Z,12.00
2023-04-22T03:01:19.778Z,7.00
2023-04-22T03:04:25.818Z,9.50
2023-04-22T03:07:29.587Z,10.50
2023-04-22T03:10:33.581Z,9.00
2023-04-22T03:13:39.194Z,9.75
2023-04-22T03:16:42.932Z,12.75
2023-04-22T03:19:46.432Z,6.50
2023-04-22T03:22:51.324Z,9.50
2023-04-22T03:25:55.100Z,1.50
2023-04-22T03:29:00.807Z,11.50
2023-04-22T03:32:04.376Z,12.00
2023-04-22T03:35:08.801Z,10.00
2023-04-22T03:38:12.603Z,12.00
2023-04-22T03:41:16.101Z,12.00
2023-04-22T03:44:24.841Z,10.00
2023-04-22T03:47:29.358Z,12.00
2023-04-22T03:50:39.162Z,12.75
2023-04-22T03:53:42.934Z,10.00
2023-04-22T03:56:52.542Z,11.50
2023-04-22T03:59:59.759Z,3.25
2023-04-22T04:03:04.130Z,12.75
2023-04-22T04:06:08.515Z,4.00
2023-04-22T04:09:13.517Z,3.25
2023-04-22T04:12:17.210Z,10.50
2023-04-22T04:15:23.327Z,12.00
2023-04-22T04:18:29.825Z,12.00
2023-04-22T04:21:34.443Z,12.00
2023-04-22T04:24:42.498Z,13.50
2023-04-22T04:27:53.127Z,11.00
2023-04-22T04:30:59.376Z,10.00
2023-04-22T04:34:03.076Z,10.00
2023-04-22T04:37:06.833Z,11.00
2023-04-22T04:40:32.597Z,9.25
2023-04-22T04:43:51.975Z,12.50
2023-04-22T04:47:05.668Z,12.50
2023-04-22T04:50:10.952Z,12.00
2023-04-22T04:53:15.112Z,13.50
2023-04-22T04:56:22.021Z,14.50
2023-04-22T04:59:26.221Z,12.25
2023-04-22T05:02:31.511Z,18.00
2023-04-22T05:05:35.448Z,13.50
2023-04-22T05:08:39.128Z,15.25
2023-04-22T05:11:45.879Z,16.00
2023-04-22T05:14:54.903Z,16.50
2023-04-22T05:17:59.826Z,15.00
2023-04-22T05:21:04.457Z,17.50
2023-04-22T05:24:09.603Z,13.00
2023-04-22T05:27:14.186Z,18.00
2023-04-22T05:30:17.502Z,14.50
2023-04-22T05:33:22.378Z,18.00
2023-04-22T05:36:30.550Z,11.00
2023-04-22T05:39:36.167Z,12.00
2023-04-22T05:42:43.441Z,13.00
2023-04-22T05:45:48.024Z,12.50
2023-04-22T05:48:55.603Z,15.75
2023-04-22T05:52:19.075Z,14.50
2023-04-22T05:55:41.173Z,13.25
2023-04-22T05:58:45.888Z,12.25
2023-04-22T06:01:53.480Z,13.00
2023-04-22T06:04:58.936Z,15.75
2023-04-22T06:08:02.966Z,14.00
2023-04-22T06:11:06.687Z,14.00
2023-04-22T06:14:13.205Z,12.75
2023-04-22T06:17:18.782Z,14.50
2023-04-22T06:20:23.942Z,6.25
2023-04-22T06:23:27.578Z,14.50
2023-04-22T06:26:31.475Z,16.00
2023-04-22T06:29:35.163Z,13.00
2023-04-22T06:32:39.618Z,13.00
2023-04-22T06:35:44.656Z,16.25
2023-04-22T06:38:48.276Z,16.00
2023-04-22T06:42:14.643Z,18.00
2023-04-22T06:45:44.161Z,16.00
2023-04-22T06:49:00.080Z,12.75
2023-04-22T06:52:24.294Z,19.00
2023-04-22T06:55:30.579Z,17.25
2023-04-22T06:58:34.534Z,15.00
2023-04-22T07:01:38.543Z,17.00
2023-04-22T07:04:42.993Z,14.50
2023-04-22T07:07:48.599Z,19.00
2023-04-22T07:10:58.087Z,14.33
2023-04-22T07:14:11.852Z,16.00
2023-04-22T07:17:16.102Z,16.33
2023-04-22T07:20:19.490Z,10.00
2023-04-22T07:23:24.243Z,14.00
2023-04-22T07:26:28.136Z,15.67
2023-04-22T07:29:31.535Z,13.00
2023-04-22T07:32:35.227Z,13.67
2023-04-22T07:35:38.847Z,11.00
2023-04-22T07:38:43.976Z,12.33
2023-04-22T07:41:47.591Z,10.33
2023-04-22T07:44:50.972Z,10.00
2023-04-22T07:47:54.571Z,9.00
2023-04-22T07:50:58.554Z,9.67
2023-04-22T07:54:03.543Z,9.33
2023-04-22T07:57:07.003Z,7.33
2023-04-22T08:00:12.364Z,6.67
2023-04-22T08:03:16.257Z,4.00
2023-04-22T08:06:20.179Z,9.67
2023-04-22T08:09:25.266Z,7.33
2023-04-22T08:12:31.528Z,8.33
2023-04-22T08:15:34.903Z,12.00
2023-04-22T08:18:38.320Z,8.00
2023-04-22T08:21:41.658Z,8.00
2023-04-22T08:24:46.519Z,5.00
2023-04-22T08:27:51.134Z,6.00
2023-04-22T08:30:54.729Z,4.00
2023-04-22T08:33:58.223Z,5.00
2023-04-22T08:37:01.665Z,5.00
2023-04-22T08:40:10.816Z,7.33
2023-04-22T08:43:17.428Z,9.33
2023-04-22T08:46:21.314Z,3.33
2023-04-22T08:49:26.040Z,4.33
2023-04-22T08:52:29.388Z,4.67
2023-04-22T08:55:35.836Z,6.00
2023-04-22T08:58:39.867Z,6.00
2023-04-22T09:01:43.972Z,6.00
2023-04-22T09:04:49.825Z,7.67
2023-04-22T09:07:54.018Z,8.00
2023-04-22T09:10:59.969Z,6.00
2023-04-22T09:14:04.735Z,5.00
2023-04-22T09:17:09.204Z,5.00
2023-04-22T09:20:15.475Z,8.33
2023-04-22T09:23:52.674Z,7.00
2023-04-22T09:26:58.094Z,6.33
2023-04-22T09:30:01.380Z,6.00
2023-04-22T09:33:07.890Z,7.00
2023-04-22T09:36:12.540Z,6.00
2023-04-22T09:39:16.132Z,5.00
2023-04-22T09:42:24.014Z,5.67
2023-04-22T09:45:29.968Z,5.00
2023-04-22T09:48:33.540Z,5.00
2023-04-22T09:51:41.318Z,5.33
2023-04-22T09:54:51.940Z,6.00
2023-04-22T09:57:58.249Z,5.00
2023-04-22T10:01:03.716Z,6.00
2023-04-22T10:04:07.882Z,7.67
2023-04-22T10:07:11.568Z,6.00
2023-04-22T10:10:15.635Z,3.67
2023-04-22T10:13:20.537Z,8.00
2023-04-22T10:16:26.324Z,7.00
2023-04-22T10:19:30.582Z,6.67
2023-04-22T10:22:35.613Z,6.00
2023-04-22T10:25:41.656Z,6.00
2023-04-22T10:28:46.409Z,2.00
2023-04-22T10:31:57.363Z,6.00
2023-04-22T10:35:13.655Z,7.00
2023-04-22T10:38:17.794Z,5.00
2023-04-22T10:41:25.632Z,6.00
2023-04-22T10:44:46.350Z,6.00
2023-04-22T10:47:49.696Z,4.50
2023-04-22T10:50:54.665Z,3.75
2023-04-22T10:53:59.108Z,4.50
2023-04-22T10:57:03.631Z,3.50
2023-04-22T11:00:31.020Z,6.00
2023-04-22T11:03:39.482Z,6.00
2023-04-22T11:06:43.191Z,5.00
2023-04-22T11:09:48.157Z,5.50
2023-04-22T11:12:52.296Z,9.00
2023-04-22T11:15:57.323Z,11.00
2023-04-22T11:19:01.407Z,7.25
2023-04-22T11:22:05.052Z,6.25
2023-04-22T11:25:10.192Z,3.00
2023-04-22T11:28:13.810Z,7.00
2023-04-22T11:31:18.779Z,5.00
2023-04-22T11:34:22.225Z,6.25
2023-04-22T11:37:26.415Z,7.00
2023-04-22T11:40:33.799Z,7.50
2023-04-22T11:43:47.832Z,5.75
2023-04-22T11:46:52.633Z,4.50
2023-04-22T11:49:57.757Z,6.00
2023-04-22T11:53:04.390Z,7.00
2023-04-22T11:56:07.885Z,7.00
2023-04-22T11:59:12.759Z,4.20
2023-04-22T12:02:19.289Z,6.40
2023-04-22T12:05:22.919Z,4.40
2023-04-22T12:08:27.834Z,7.00
2023-04-22T12:11:32.203Z,4.75
2023-04-22T12:14:36.318Z,6.00
2023-04-22T12:17:41.208Z,5.40
2023-04-22T12:20:44.630Z,7.00
2023-04-22T12:23:49.747Z,6.00
2023-04-22T12:26:55.370Z,5.20
2023-04-22T12:29:59.187Z,5.00
2023-04-22T12:33:04.243Z,4.00
2023-04-22T12:36:08.245Z,3.00
2023-04-22T12:39:12.648Z,5.20
2023-04-22T12:42:16.053Z,3.60
2023-04-22T12:45:19.578Z,2.00
2023-04-22T12:48:24.544Z,4.80
2023-04-22T12:51:28.062Z,3.00
2023-04-22T12:54:31.707Z,4.00
2023-04-22T12:57:35.526Z,7.00
2023-04-22T13:00:39.156Z,4.80
2023-04-22T13:03:44.296Z,4.60
2023-04-22T13:06:50.768Z,6.40
2023-04-22T13:09:54.344Z,4.00
2023-04-22T13:13:06.394Z,1.20
2023-04-22T13:16:21.445Z,2.20
2023-04-22T13:19:27.238Z,9.20
2023-04-22T13:22:30.922Z,4.80
2023-04-22T13:25:34.341Z,4.00
2023-04-22T13:28:37.930Z,4.40
2023-04-22T13:31:44.046Z,5.00
2023-04-22T13:34:49.435Z,4.00
2023-04-22T13:37:52.951Z,4.40
2023-04-22T13:40:56.326Z,5.80
2023-04-22T13:43:59.950Z,4.40
2023-04-22T13:47:03.330Z,4.80
2023-04-22T13:50:10.033Z,4.00
2023-04-22T13:53:14.292Z,5.00
2023-04-22T13:56:17.746Z,3.60
2023-04-22T13:59:21.229Z,3.80
2023-04-22T14:02:25.562Z,4.00
2023-04-22T14:05:30.671Z,4.20
2023-04-22T14:08:34.028Z,4.00
2023-04-22T14:11:37.775Z,5.80
2023-04-22T14:14:41.146Z,4.80
2023-04-22T14:17:49.353Z,4.00
2023-04-22T14:20:55.205Z,5.00
2023-04-22T14:23:58.694Z,4.00
2023-04-22T14:27:02.878Z,5.00
2023-04-22T14:30:08.591Z,6.60
2023-04-22T14:33:12.556Z,7.60
2023-04-22T14:36:18.794Z,4.80
2023-04-22T14:39:22.258Z,8.00
2023-04-22T14:42:26.109Z,5.40
2023-04-22T14:45:31.491Z,6.75
2023-04-22T14:48:35.656Z,21.00
2023-04-22T14:51:40.812Z,9.00
2023-04-22T14:54:44.434Z,7.00
2023-04-22T14:57:48.419Z,9.00
2023-04-22T15:00:52.104Z,7.50
2023-04-22T15:03:55.554Z,8.00
2023-04-22T15:07:01.742Z,7.50
2023-04-22T15:10:05.613Z,7.25
2023-04-22T15:13:09.009Z,6.40
2023-04-22T15:16:13.629Z,8.00
2023-04-22T15:19:17.624Z,7.00
2023-04-22T15:22:22.414Z,8.00
2023-04-22T15:25:27.505Z,7.25
2023-04-22T15:28:30.840Z,8.00
2023-04-22T15:31:34.373Z,6.20
2023-04-22T15:34:37.811Z,4.60
2023-04-22T15:37:42.616Z,6.25
2023-04-22T15:40:46.214Z,9.25
2023-04-22T15:43:51.938Z,6.20
2023-04-22T15:46:55.484Z,7.60
2023-04-22T15:50:06.567Z,7.75
2023-04-22T15:53:11.814Z,9.50
2023-04-22T15:56:16.207Z,7.00
2023-04-22T15:59:19.791Z,7.00
2023-04-22T16:02:23.374Z,6.00
2023-04-22T16:05:28.400Z,7.00
2023-04-22T16:08:33.844Z,7.75
2023-04-22T16:11:39.352Z,8.50
2023-04-22T16:14:42.679Z,6.00
2023-04-22T16:17:46.154Z,7.00
2023-04-22T16:20:50.626Z,7.00
2023-04-22T16:23:55.595Z,8.00
2023-04-22T16:26:59.174Z,7.50
2023-04-22T16:30:02.544Z,6.00
2023-04-22T16:33:06.978Z,11.25
2023-04-22T16:36:10.955Z,6.00
2023-04-22T16:39:15.873Z,7.50
2023-04-22T16:42:19.448Z,7.00
2023-04-22T16:45:22.804Z,6.75
2023-04-22T16:48:26.425Z,7.75
2023-04-22T16:51:30.080Z,6.00
2023-04-22T16:54:35.157Z,13.00
2023-04-22T16:57:38.681Z,11.75
2023-04-22T17:00:42.298Z,8.25
2023-04-22T17:03:47.119Z,8.25
2023-04-22T17:06:50.773Z,8.75
2023-04-22T17:09:55.531Z,8.50
2023-04-22T17:12:58.962Z,7.00
2023-04-22T17:16:02.426Z,7.00
2023-04-22T17:19:06.161Z,10.67
2023-04-22T17:22:09.774Z,7.00
2023-04-22T17:25:14.785Z,8.33
2023-04-22T17:28:18.123Z,8.00
2023-04-22T17:31:22.383Z,8.33
2023-04-22T17:34:25.813Z,10.67
2023-04-22T17:37:29.110Z,6.00
2023-04-22T17:40:34.365Z,6.00
2023-04-22T17:43:37.703Z,6.00
2023-04-22T17:46:41.633Z,9.00
2023-04-22T17:49:45.202Z,9.00
2023-04-22T17:52:48.531Z,8.33
2023-04-22T17:55:53.224Z,5.67
2023-04-22T17:58:56.554Z,6.67
2023-04-22T18:02:01.460Z,9.00
2023-04-22T18:05:05.683Z,9.00
2023-04-22T18:08:10.529Z,6.00
2023-04-22T18:11:15.612Z,6.67
2023-04-22T18:14:20.922Z,4.00
2023-04-22T18:17:24.608Z,8.00
2023-04-22T18:20:27.971Z,9.00
2023-04-22T18:23:32.030Z,8.00
2023-04-22T18:26:36.792Z,8.00
2023-04-22T18:29:40.671Z,8.33
2023-04-22T18:32:44.456Z,8.67
2023-04-22T18:35:47.879Z,8.00
2023-04-22T18:38:52.222Z,7.00
2023-04-22T18:41:57.104Z,8.00
2023-04-22T18:45:01.878Z,8.00
2023-04-22T18:48:07.382Z,8.00
2023-04-22T18:51:11.056Z,7.00
2023-04-22T18:54:14.550Z,7.00
2023-04-22T18:57:19.306Z,8.67
2023-04-22T19:00:23.024Z,7.67
2023-04-22T19:03:26.596Z,7.00
2023-04-22T19:06:30.421Z,8.00
2023-04-22T19:09:34.017Z,10.00
2023-04-22T19:12:38.806Z,10.67
2023-04-22T19:15:42.276Z,8.33
2023-04-22T19:18:45.609Z,11.25
2023-04-22T19:21:49.673Z,12.33
2023-04-22T19:24:53.143Z,9.00
2023-04-22T19:27:57.856Z,9.75
2023-04-22T19:31:01.541Z,11.50
2023-04-22T19:34:05.232Z,11.00
2023-04-22T19:37:08.656Z,12.00
2023-04-22T19:40:13.431Z,9.00
2023-04-22T19:43:19.280Z,9.25
2023-04-22T19:46:22.813Z,10.00
2023-04-22T19:49:27.144Z,8.50
2023-04-22T19:52:32.502Z,10.50
2023-04-22T19:55:37.512Z,6.25
2023-04-22T19:58:44.041Z,9.50
2023-04-22T20:01:47.861Z,12.00
2023-04-22T20:04:51.585Z,14.50
2023-04-22T20:07:58.614Z,12.25
2023-04-22T20:11:02.334Z,15.75
2023-04-22T20:14:10.051Z,18.50
2023-04-22T20:17:14.004Z,22.25
2023-04-22T20:20:17.844Z,21.50
2023-04-22T20:23:25.358Z,17.50
2023-04-22T20:26:29.250Z,20.00
2023-04-22T20:29:36.007Z,19.00
2023-04-22T20:32:39.544Z,14.50
2023-04-22T20:35:44.018Z,21.00
2023-04-22T20:38:49.141Z,20.50
2023-04-22T20:41:56.346Z,22.50
2023-04-22T20:45:01.435Z,21.75
2023-04-22T20:48:05.561Z,20.00
2023-04-22T20:51:08.958Z,20.00
2023-04-22T20:54:27.823Z,24.75
2023-04-22T20:57:32.748Z,21.25
2023-04-22T21:00:37.518Z,16.00
2023-04-22T21:03:41.985Z,16.00
2023-04-22T21:06:46.403Z,16.50
2023-04-22T21:09:50.892Z,17.50
2023-04-22T21:12:55.688Z,15.25
2023-04-22T21:16:04.052Z,15.00
2023-04-22T21:19:08.467Z,16.50
2023-04-22T21:22:12.345Z,15.50
2023-04-22T21:25:19.543Z,13.00
2023-04-22T21:28:24.120Z,14.50
2023-04-22T21:31:29.249Z,13.00
2023-04-22T21:34:32.574Z,11.50
2023-04-22T21:37:36.150Z,12.00
2023-04-22T21:40:39.589Z,10.00
2023-04-22T21:43:42.969Z,9.00
2023-04-22T21:46:47.901Z,7.00
2023-04-22T21:49:52.394Z,7.50
2023-04-22T21:52:55.729Z,9.00
2023-04-22T21:55:59.166Z,9.75
2023-04-22T21:59:02.452Z,0.00
2023-04-22T22:02:07.185Z,10.50
2023-04-22T22:05:11.673Z,9.00
2023-04-22T22:08:15.145Z,8.00
2023-04-22T22:11:30.236Z,12.00
2023-04-22T22:14:35.128Z,11.50
2023-04-22T22:17:40.402Z,12.00
2023-04-22T22:20:44.637Z,10.00
2023-04-22T22:23:48.000Z,12.00
2023-04-22T22:26:51.599Z,9.50
2023-04-22T22:29:54.926Z,11.50
2023-04-22T22:32:59.920Z,11.50
2023-04-22T22:36:03.483Z,12.00
2023-04-22T22:39:07.118Z,10.00
2023-04-22T22:42:10.585Z,11.50
2023-04-22T22:45:14.560Z,13.00
2023-04-22T22:48:19.449Z,12.25
2023-04-22T22:51:22.853Z,11.00
2023-04-22T22:54:26.417Z,10.00
2023-04-22T22:57:29.950Z,11.00
2023-04-22T23:00:33.381Z,10.00
2023-04-22T23:03:38.440Z,3.25
2023-04-22T23:06:41.914Z,11.00
2023-04-22T23:09:45.300Z,13.00
2023-04-22T23:12:48.702Z,11.00
2023-04-22T23:15:52.153Z,11.00
2023-04-22T23:18:57.393Z,12.50
2023-04-22T23:22:01.075Z,14.50
2023-04-22T23:25:05.300Z,10.50
2023-04-22T23:28:09.262Z,12.00
2023-04-22T23:31:18.513Z,12.50
2023-04-22T23:34:24.737Z,13.00
2023-04-22T23:37:30.029Z,12.00
2023-04-22T23:40:33.440Z,15.50
2023-04-22T23:43:36.968Z,9.25
2023-04-22T23:46:41.268Z,13.00
2023-04-22T23:49:46.436Z,12.75
2023-04-22T23:52:49.854Z,14.50
2023-04-22T23:55:53.824Z,16.50
2023-04-22T23:58:57.917Z,15.25
